createdAt,value
2019-04-23T00:05:08.103Z,9.80
2019-04-23T00:13:40.737Z,9.30
2019-04-23T00:22:13.420Z,10.00
2019-04-23T00:30:38.195Z,8.75
2019-04-23T00:47:08.992Z,10.37
2019-04-23T00:55:36.992Z,9.20
2019-04-23T01:03:48.350Z,10.00
2019-04-23T01:12:06.358Z,9.70
2019-04-23T01:20:28.428Z,10.80
2019-04-23T01:28:55.900Z,10.60
2019-04-23T01:37:12.612Z,10.20
2019-04-23T01:45:27.415Z,10.10
2019-04-23T01:53:51.808Z,10.63
2019-04-23T02:02:14.340Z,10.53
2019-04-23T02:10:41.538Z,10.63
2019-04-23T02:27:11.748Z,10.80
2019-04-23T02:44:04.978Z,11.57
2019-04-23T02:52:18.443Z,9.87
2019-04-23T03:17:36.501Z,12.07
2019-04-23T03:25:54.059Z,12.07
2019-04-23T03:34:36.749Z,15.00
2019-04-23T03:42:22.401Z,11.60
2019-04-23T03:50:39.489Z,11.03
2019-04-23T03:59:27.104Z,10.80
2019-04-23T04:15:55.379Z,11.30
2019-04-23T04:24:17.280Z,10.70
2019-04-23T04:32:24.673Z,9.77
2019-04-23T04:40:42.476Z,10.27
2019-04-23T04:57:30.263Z,10.60
2019-04-23T05:14:02.288Z,9.50
2019-04-23T05:22:14.128Z,10.27
2019-04-23T05:30:38.185Z,9.65
2019-04-23T05:47:16.013Z,9.70
2019-04-23T05:55:27.285Z,8.93
2019-04-23T06:03:56.762Z,10.30
2019-04-23T06:12:04.492Z,9.27
2019-04-23T06:20:38.489Z,9.00
2019-04-23T06:28:49.007Z,8.90
2019-04-23T06:45:26.037Z,9.70
2019-04-23T06:53:43.761Z,8.90
2019-04-23T07:10:28.346Z,9.43
2019-04-23T07:18:41.259Z,10.07
2019-04-23T07:26:58.487Z,8.17
2019-04-23T07:35:15.825Z,7.90
2019-04-23T07:43:54.750Z,8.83
2019-04-23T07:52:24.267Z,7.90
2019-04-23T08:00:38.339Z,6.37
2019-04-23T08:08:42.895Z,6.62
2019-04-23T08:17:05.488Z,7.57
2019-04-23T08:25:44.457Z,8.03
2019-04-23T08:34:11.956Z,8.90
2019-04-23T08:50:44.265Z,7.37
2019-04-23T08:59:12.002Z,8.13
2019-04-23T09:07:24.151Z,6.57
2019-04-23T09:15:48.324Z,7.10
2019-04-23T09:23:56.204Z,6.87
2019-04-23T09:49:29.024Z,6.70
2019-04-23T09:57:51.918Z,5.93
2019-04-23T10:05:46.841Z,6.70
2019-04-23T10:13:54.771Z,8.37
2019-04-23T10:22:13.328Z,6.80
2019-04-23T10:39:35.786Z,6.45
2019-04-23T10:48:49.602Z,6.77
2019-04-23T10:56:53.174Z,6.47
2019-04-23T11:13:49.030Z,7.90
2019-04-23T11:22:17.456Z,7.20
2019-04-23T11:39:23.967Z,5.50
2019-04-23T11:48:12.438Z,6.70
2019-04-23T12:13:20.734Z,6.00
2019-04-23T12:21:37.511Z,7.47
2019-04-23T12:30:14.702Z,7.20
2019-04-23T12:38:13.931Z,7.53
2019-04-23T13:04:35.061Z,6.67
2019-04-23T13:13:03.964Z,6.77
2019-04-23T13:29:56.789Z,8.47
2019-04-23T13:47:53.346Z,8.73
2019-04-23T13:56:02.139Z,7.53
2019-04-23T14:04:36.050Z,8.83
2019-04-23T14:21:25.206Z,7.40
2019-04-23T14:29:52.327Z,8.03
2019-04-23T14:38:19.885Z,7.60
2019-04-23T14:55:22.637Z,8.60
2019-04-23T15:03:08.793Z,8.80
2019-04-23T15:28:26.389Z,8.37
2019-04-23T15:45:20.985Z,8.87
2019-04-23T15:53:44.716Z,9.57
2019-04-23T16:01:42.591Z,11.53
2019-04-23T16:10:25.980Z,9.93
2019-04-23T16:19:07.727Z,9.93
2019-04-23T16:35:49.922Z,11.57
2019-04-23T16:44:09.411Z,10.20
2019-04-23T16:52:24.548Z,11.40
2019-04-23T17:01:03.377Z,11.40
2019-04-23T17:17:18.491Z,10.83
2019-04-23T17:25:41.906Z,12.97
2019-04-23T17:34:09.091Z,12.63
2019-04-23T17:42:24.353Z,11.85
2019-04-23T17:50:53.163Z,13.63
2019-04-23T17:59:12.048Z,15.93
2019-04-23T18:15:55.934Z,13.80
2019-04-23T18:33:31.700Z,14.73
2019-04-23T18:49:42.103Z,13.70
2019-04-23T18:57:56.918Z,12.87
2019-04-23T19:06:32.702Z,12.03
2019-04-23T19:14:59.805Z,11.70
2019-04-23T19:40:20.188Z,10.57
2019-04-23T19:48:42.389Z,12.77
2019-04-23T19:56:55.127Z,11.33
2019-04-23T20:05:13.986Z,8.70
2019-04-23T20:13:45.339Z,8.30
2019-04-23T20:22:00.215Z,6.27
2019-04-23T20:31:03.946Z,8.67
2019-04-23T20:39:03.972Z,6.00
2019-04-23T20:55:47.553Z,6.10
2019-04-23T21:03:58.448Z,6.10
2019-04-23T21:12:27.458Z,5.97
2019-04-23T21:37:40.790Z,5.00
2019-04-23T21:46:02.544Z,6.57
2019-04-23T21:53:58.754Z,5.57
2019-04-23T22:02:28.184Z,4.77
2019-04-23T22:11:00.020Z,5.53
2019-04-23T22:27:16.154Z,5.20
2019-04-23T22:35:47.959Z,4.00
2019-04-23T22:52:23.088Z,3.90
2019-04-23T23:01:12.576Z,5.07
2019-04-23T23:09:26.326Z,4.43
2019-04-23T23:17:51.189Z,4.83
2019-04-23T23:26:06.680Z,4.63
2019-04-23T23:42:49.433Z,4.20
2019-04-23T23:59:35.066Z,5.10
